Time;durP1;ratioP1;P1;durP2;ratioP2;P2;SDS_P1;SDS_P2;PMS_P1;PMS_P2;Temp;Humidity;BMP_temperature;BMP_pressure;BME280_temperature;BME280_humidity;BME280_pressure;Samples;Min_cycle;Max_cycle;Signal;HPM_P1;HPM_P2
2023/01/07 00:03:59;;;;;;;;;;;8.80;99.90;;;7.84;100.00;96182.00;10420420;28;2347;-71
2023/01/07 00:09:02;;;;;;;;;;;8.90;99.90;;;7.84;100.00;96185.47;10430020;28;2244;-73
2023/01/07 00:14:05;;;;;;;;;;;8.90;99.90;;;7.85;100.00;96183.59;10430468;28;2139;-73
2023/01/07 00:19:08;;;;;;;;;;;8.80;99.90;;;7.73;100.00;96174.88;10434397;28;2153;-71
2023/01/07 00:24:10;;;;;;;;;;;8.80;99.90;;;7.78;100.00;96172.28;10430065;28;2278;-71
2023/01/07 00:29:13;;;;;;;;;;;8.80;99.90;;;7.84;100.00;96173.97;10431939;28;2236;-72
2023/01/07 00:34:16;;;;;;;;;;;8.80;99.90;;;7.80;100.00;96162.13;10429124;28;2211;-70
2023/01/07 00:39:19;;;;;;;;;;;8.80;99.90;;;7.83;100.00;96169.69;10433431;28;2217;-72
2023/01/07 00:44:21;;;;;;;;;;;8.80;99.90;;;7.80;100.00;96165.59;10426863;28;2191;-71
2023/01/07 00:49:24;;;;;;;;;;;8.90;99.90;;;7.84;100.00;96161.38;10437240;28;2362;-70
2023/01/07 00:54:27;;;;;;;;;;;8.90;99.90;;;7.87;100.00;96160.06;10427367;28;2167;-71
2023/01/07 00:59:30;;;;;;;;;;;8.90;99.90;;;7.83;100.00;96161.66;10424542;28;2240;-71
2023/01/07 01:04:33;;;;;;;;;;;8.90;99.90;;;7.77;100.00;96157.28;10435178;28;2183;-72
2023/01/07 01:09:35;;;;;;;;;;;8.80;99.90;;;7.78;100.00;96149.00;10429308;28;2565;-71
2023/01/07 01:14:38;;;;;;;;;;;8.80;99.90;;;7.79;100.00;96163.19;10429952;28;2208;-71
2023/01/07 01:19:41;;;;;;;;;;;8.80;99.90;;;7.76;100.00;96155.63;10437955;28;2142;-71
2023/01/07 01:24:43;;;;;;;;;;;8.80;99.90;;;7.83;100.00;96151.75;10433586;28;2278;-73
2023/01/07 01:29:46;;;;;;;;;;;8.80;99.90;;;7.85;100.00;96154.16;10437180;28;2524;-74
2023/01/07 01:34:48;;;;;;;;;;;8.90;99.90;;;7.84;100.00;96152.56;10426786;28;2237;-71
2023/01/07 01:39:51;;;;;;;;;;;8.90;99.90;;;7.83;100.00;96148.25;10417899;28;2177;-71
2023/01/07 01:44:54;;;;;;;;;;;8.80;99.90;;;7.77;100.00;96143.91;10433654;28;2119;-72
2023/01/07 01:49:57;;;;;;;;;;;8.80;99.90;;;7.83;100.00;96137.56;10428077;28;2568;-71
2023/01/07 01:54:59;;;;;;;;;;;8.80;99.90;;;7.80;100.00;96138.84;10435228;28;2221;-71
2023/01/07 02:00:02;;;;;;;;;;;8.90;99.90;;;7.85;100.00;96133.56;10439080;28;2167;-72
2023/01/07 02:05:04;;;;;;;;;;;8.90;99.90;;;7.83;100.00;96127.66;10439495;28;2355;-72
2023/01/07 02:10:07;;;;;;;;;;;8.80;99.90;;;7.79;100.00;96125.72;10430971;28;2191;-72
2023/01/07 02:15:10;;;;;;;;;;;8.90;99.90;;;7.79;100.00;96120.38;10437218;28;2261;-72
2023/01/07 02:20:13;;;;;;;;;;;8.90;99.90;;;7.75;100.00;96116.56;10443218;28;2166;-70
2023/01/07 02:25:16;;;;;;;;;;;8.90;99.90;;;7.78;100.00;96116.06;10440752;28;2208;-71
2023/01/07 02:30:18;;;;;;;;;;;8.80;99.90;;;7.78;100.00;96105.38;10435719;28;2209;-70
2023/01/07 02:35:21;;;;;;;;;;;8.90;99.90;;;7.71;100.00;96102.06;10438065;28;2190;-73
2023/01/07 02:40:24;;;;;;;;;;;8.80;99.90;;;7.77;100.00;96107.25;10435072;28;2207;-73
2023/01/07 02:45:26;;;;;;;;;;;8.80;99.90;;;7.66;100.00;96100.13;10427264;28;2503;-71
2023/01/07 02:50:29;;;;;;;;;;;8.80;99.90;;;7.65;100.00;96097.69;10433271;28;2220;-71
2023/01/07 02:55:32;;;;;;;;;;;9.50;99.90;;;7.64;100.00;96094.22;10433515;28;2155;-71
2023/01/07 03:00:35;;;;;;;;;;;8.70;99.90;;;7.68;100.00;96089.16;10433118;28;2259;-70
2023/01/07 03:05:38;;;;;;;;;;;8.80;99.90;;;7.63;100.00;96086.41;10437040;28;2219;-70
2023/01/07 03:10:41;;;;;;;;;;;8.70;99.90;;;7.59;100.00;96080.75;10406418;28;2110;-71
2023/01/07 03:15:44;;;;;;;;;;;8.70;99.90;;;7.55;100.00;96075.09;10414052;28;2221;-71
2023/01/07 03:20:46;;;;;;;;;;;8.60;99.90;;;7.53;100.00;96071.06;10406561;28;2433;-71
2023/01/07 03:25:49;;;;;;;;;;;8.70;99.90;;;7.50;100.00;96066.97;10407899;28;2324;-71
2023/01/07 03:30:52;;;;;;;;;;;8.60;99.90;;;7.56;100.00;96063.31;10406544;28;2146;-71
2023/01/07 03:35:54;;;;;;;;;;;8.60;99.90;;;7.54;100.00;96057.41;10408200;28;2218;-73
2023/01/07 03:40:57;;;;;;;;;;;8.60;99.90;;;7.51;100.00;96047.22;10408235;28;2209;-71
2023/01/07 03:46:00;;;;;;;;;;;8.60;99.90;;;7.53;100.00;96045.09;10422771;28;2182;-72
2023/01/07 03:51:03;;;;;;;;;;;8.60;99.90;;;7.56;100.00;96049.13;10419503;28;2204;-71
2023/01/07 03:56:05;;;;;;;;;;;8.60;99.90;;;7.54;100.00;96041.38;10412507;28;2278;-71
2023/01/07 04:01:08;;;;;;;;;;;8.50;99.90;;;7.49;100.00;96027.91;10413389;28;2182;-71
2023/01/07 04:06:11;;;;;;;;;;;8.50;99.90;;;7.49;100.00;96019.09;10415538;28;2185;-72
2023/01/07 04:11:14;;;;;;;;;;;8.50;99.90;;;7.49;100.00;96011.06;10423346;28;2298;-70
2023/01/07 04:16:16;;;;;;;;;;;8.50;99.90;;;7.53;100.00;96013.00;10416849;28;2212;-72
2023/01/07 04:21:19;;;;;;;;;;;8.60;99.90;;;7.47;100.00;96003.28;10413350;28;2172;-71
2023/01/07 04:26:22;;;;;;;;;;;8.50;99.90;;;7.42;100.00;95989.84;10411014;28;2205;-70
2023/01/07 04:31:25;;;;;;;;;;;8.50;99.90;;;7.37;100.00;95992.47;10412317;28;2339;-72
2023/01/07 04:36:27;;;;;;;;;;;8.40;99.90;;;7.31;100.00;95983.56;10410636;28;2184;-71
2023/01/07 04:41:30;;;;;;;;;;;8.40;99.90;;;7.28;100.00;95980.59;10410545;28;2235;-71
2023/01/07 04:46:33;;;;;;;;;;;8.40;99.90;;;7.28;100.00;95967.22;10412145;28;2201;-71
2023/01/07 04:51:36;;;;;;;;;;;8.40;99.90;;;7.19;100.00;95969.50;10409750;28;2193;-72
2023/01/07 04:56:38;;;;;;;;;;;8.30;99.90;;;7.19;100.00;95963.34;10412772;28;2204;-73
2023/01/07 05:01:41;;;;;;;;;;;8.30;99.90;;;7.12;100.00;95957.34;10412569;28;2235;-71
2023/01/07 05:06:44;;;;;;;;;;;8.20;99.90;;;7.02;100.00;95950.03;10412960;28;2270;-71
2023/01/07 05:11:47;;;;;;;;;;;8.20;99.90;;;6.85;100.00;95936.69;10417893;28;2174;-72
2023/01/07 05:16:49;;;;;;;;;;;8.10;99.90;;;6.67;100.00;95944.97;10410506;28;2256;-72
2023/01/07 05:21:53;;;;;;;;;;;7.90;99.90;;;6.57;100.00;95934.16;10413708;28;2179;-70
2023/01/07 05:26:55;;;;;;;;;;;7.80;99.90;;;6.54;100.00;95929.28;10414320;28;2166;-71
2023/01/07 05:31:58;;;;;;;;;;;7.70;99.90;;;6.41;100.00;95931.22;10411418;28;2186;-72
2023/01/07 05:37:01;;;;;;;;;;;7.70;99.90;;;6.26;100.00;95914.16;10408582;28;2155;-71
2023/01/07 05:42:04;;;;;;;;;;;7.50;99.90;;;6.10;100.00;95908.56;10410350;28;2193;-71
2023/01/07 05:47:06;;;;;;;;;;;7.40;99.90;;;5.82;100.00;95903.25;10412902;28;2355;-72
2023/01/07 05:52:09;;;;;;;;;;;7.30;99.90;;;5.58;100.00;95910.56;10409509;28;2188;-72
2023/01/07 05:57:12;;;;;;;;;;;7.00;99.90;;;5.36;100.00;95908.56;10407663;28;2149;-70
2023/01/07 06:02:15;;;;;;;;;;;6.90;99.90;;;5.22;100.00;95911.75;10408216;28;2453;-71
2023/01/07 06:07:18;;;;;;;;;;;6.70;99.90;;;5.07;100.00;95904.22;10411403;28;2238;-75
2023/01/07 06:12:21;;;;;;;;;;;6.50;99.90;;;4.95;100.00;95906.09;10414900;28;2155;-71
2023/01/07 06:17:23;;;;;;;;;;;6.40;99.90;;;4.79;100.00;95905.78;10409311;28;3168;-72
2023/01/07 06:22:26;;;;;;;;;;;6.30;99.90;;;4.74;100.00;95895.03;10407721;28;2291;-72
2023/01/07 06:27:29;;;;;;;;;;;6.20;99.90;;;4.69;100.00;95905.56;10409110;28;2206;-70
2023/01/07 06:32:31;;;;;;;;;;;6.10;99.90;;;4.60;100.00;95904.31;10408638;28;2160;-72
2023/01/07 06:37:36;;;;;;;;;;;6.10;99.90;;;4.54;100.00;95903.38;10408848;28;2260;-71
2023/01/07 06:42:39;;;;;;;;;;;6.00;99.90;;;4.47;100.00;95907.22;10409490;28;2148;-72
2023/01/07 06:47:44;;;;;;;;;;;;;;;4.41;100.00;95894.81;10406374;28;2188;-70
2023/01/07 06:52:47;;;;;;;;;;;5.70;99.90;;;4.34;100.00;95887.78;10407429;28;2187;-70
2023/01/07 06:57:49;;;;;;;;;;;5.60;99.90;;;4.28;100.00;95886.03;10409546;28;2207;-70
2023/01/07 07:02:52;;;;;;;;;;;5.50;99.90;;;4.25;100.00;95896.31;10413423;28;2270;-71
2023/01/07 07:07:55;;;;;;;;;;;5.50;99.90;;;4.17;100.00;95889.47;10409146;28;2170;-70
2023/01/07 07:12:58;;;;;;;;;;;5.40;99.90;;;4.18;100.00;95885.78;10412249;28;2114;-71
2023/01/07 07:18:00;;;;;;;;;;;5.50;99.90;;;4.14;100.00;95881.97;10408050;28;2284;-71
2023/01/07 07:23:03;;;;;;;;;;;5.40;99.90;;;4.18;100.00;95885.78;10412538;28;2163;-71
2023/01/07 07:28:06;;;;;;;;;;;5.30;99.90;;;4.16;100.00;95887.88;10416035;28;2124;-71
2023/01/07 07:33:11;;;;;;;;;;;5.30;99.90;;;4.12;100.00;95880.56;10416748;28;2193;-71
2023/01/07 07:38:15;;;;;;;;;;;5.30;99.90;;;4.05;100.00;95873.50;10418330;28;2546;-71
2023/01/07 07:43:17;;;;;;;;;;;5.30;99.90;;;4.10;100.00;95878.16;10416610;28;2171;-71
2023/01/07 07:48:20;;;;;;;;;;;5.30;99.90;;;4.05;100.00;95870.84;10415762;28;2246;-71
2023/01/07 07:53:23;;;;;;;;;;;5.20;99.90;;;4.05;100.00;95867.38;10418168;28;2177;-71
2023/01/07 07:58:25;;;;;;;;;;;5.20;99.90;;;4.11;100.00;95863.81;10415444;28;2162;-71
2023/01/07 08:03:28;;;;;;;;;;;5.20;99.90;;;4.17;100.00;95857.56;10411446;28;2288;-70
2023/01/07 08:08:31;;;;;;;;;;;5.30;99.90;;;4.15;100.00;95843.69;10415897;28;2252;-69
2023/01/07 08:13:33;;;;;;;;;;;5.30;99.90;;;4.10;100.00;95840.09;10418360;28;2133;-70
2023/01/07 08:18:36;;;;;;;;;;;5.30;99.90;;;4.12;100.00;95830.84;10418316;28;2170;-71
2023/01/07 08:23:39;;;;;;;;;;;5.20;99.90;;;4.24;100.00;95828.97;10425490;28;2512;-70
2023/01/07 08:28:42;;;;;;;;;;;5.30;99.90;;;4.23;100.00;95829.22;10424638;28;2119;-84
2023/01/07 08:33:48;;;;;;;;;;;5.30;99.90;;;4.25;100.00;95816.47;10426359;28;2170;-78
2023/01/07 08:38:51;;;;;;;;;;;5.30;99.90;;;4.36;100.00;95817.53;10418265;28;2244;-78
2023/01/07 08:43:53;;;;;;;;;;;5.30;99.90;;;4.45;100.00;95805.47;10416129;28;2184;-78
2023/01/07 08:48:56;;;;;;;;;;;5.50;99.90;;;4.49;100.00;95801.31;10417756;28;2166;-77
2023/01/07 08:54:00;;;;;;;;;;;5.50;99.90;;;4.54;100.00;95788.09;10420822;28;2082;-78
2023/01/07 08:59:04;;;;;;;;;;;5.50;99.90;;;4.55;100.00;95789.72;10416828;28;2276;-78
2023/01/07 09:04:07;;;;;;;;;;;5.60;99.90;;;4.70;100.00;95782.03;10417322;28;2333;-78
2023/01/07 09:09:10;;;;;;;;;;;5.60;99.90;;;4.74;100.00;95777.84;10417323;28;2276;-80
2023/01/07 09:14:13;;;;;;;;;;;5.80;99.90;;;4.78;100.00;95768.38;10423203;28;2182;-82
2023/01/07 09:19:16;;;;;;;;;;;5.80;99.90;;;4.81;100.00;95783.03;10413558;28;2187;-79
2023/01/07 09:24:19;;;;;;;;;;;5.80;99.90;;;4.85;100.00;95766.38;10412763;28;2064;-80
2023/01/07 09:29:22;;;;;;;;;;;5.90;99.90;;;4.94;100.00;95773.97;10413861;28;2205;-78
2023/01/07 09:34:24;;;;;;;;;;;5.90;99.90;;;5.01;100.00;95779.97;10413267;28;2184;-80
2023/01/07 09:39:28;;;;;;;;;;;6.00;99.90;;;5.06;100.00;95774.72;10412755;28;2195;-79
2023/01/07 09:44:31;;;;;;;;;;;6.00;99.90;;;5.14;100.00;95761.00;10413875;28;2129;-81
2023/01/07 09:49:34;;;;;;;;;;;6.10;99.90;;;5.22;100.00;95760.66;10426436;28;2230;-79
2023/01/07 09:54:41;;;;;;;;;;;6.20;99.90;;;5.32;100.00;95752.81;10437642;28;2193;-78
2023/01/07 09:59:43;;;;;;;;;;;6.20;99.90;;;5.46;100.00;95747.97;10435532;28;2615;-78
2023/01/07 10:04:48;;;;;;;;;;;6.40;99.90;;;5.55;100.00;95722.53;10440341;28;2206;-78
2023/01/07 10:09:51;;;;;;;;;;;6.50;99.90;;;5.60;100.00;95716.47;10439429;28;2364;-78
2023/01/07 10:14:53;;;;;;;;;;;6.50;99.90;;;5.60;100.00;95717.28;10441298;28;2218;-78
2023/01/07 10:19:56;;;;;;;;;;;6.60;99.90;;;5.64;100.00;95712.25;10442296;28;2211;-79
2023/01/07 10:24:59;;;;;;;;;;;6.70;99.90;;;5.90;100.00;95703.56;10435494;28;2265;-78
2023/01/07 10:30:02;;;;;;;;;;;6.80;99.90;;;6.03;100.00;95697.09;10441102;28;2332;-77
2023/01/07 10:35:05;;;;;;;;;;;6.90;99.90;;;6.10;100.00;95680.91;10439528;28;2189;-78
2023/01/07 10:40:08;;;;;;;;;;;7.00;99.90;;;6.26;100.00;95677.38;10437952;28;2145;-79
2023/01/07 10:45:11;;;;;;;;;;;7.10;99.90;;;6.47;100.00;95673.91;10434233;28;2206;-78
2023/01/07 10:50:13;;;;;;;;;;;7.30;99.90;;;6.61;100.00;95660.16;10442076;28;2209;-79
2023/01/07 10:55:17;;;;;;;;;;;7.40;99.90;;;6.76;100.00;95654.97;10438067;28;2216;-78
2023/01/07 11:00:20;;;;;;;;;;;7.70;99.90;;;6.87;100.00;95646.00;10452256;28;2282;-79
2023/01/07 11:05:23;;;;;;;;;;;7.70;99.90;;;6.91;100.00;95647.09;10441498;28;2234;-79
2023/01/07 11:10:26;;;;;;;;;;;7.80;99.90;;;7.02;100.00;95640.78;10424196;28;2159;-77
2023/01/07 11:15:29;;;;;;;;;;;8.00;99.90;;;7.01;100.00;95630.38;10434889;28;2246;-79
2023/01/07 11:20:32;;;;;;;;;;;8.10;99.90;;;7.03;100.00;95623.69;10430266;28;2258;-79
2023/01/07 11:25:34;;;;;;;;;;;8.00;99.90;;;7.17;100.00;95607.22;10430803;28;2200;-78
2023/01/07 11:30:37;;;;;;;;;;;8.10;99.90;;;7.12;100.00;95596.50;10435028;28;2229;-78
2023/01/07 11:35:44;;;;;;;;;;;8.10;99.90;;;7.10;100.00;95585.25;10441082;28;2252;-79
2023/01/07 11:40:47;;;;;;;;;;;8.10;99.90;;;7.15;100.00;95577.28;10435220;28;2237;-77
2023/01/07 11:45:50;;;;;;;;;;;8.10;99.90;;;7.21;100.00;95573.59;10440962;28;2207;-76
2023/01/07 11:51:12;;;;;;;;;;;8.20;99.90;;;7.39;100.00;95557.13;10433208;28;2208;-78
2023/01/07 11:56:17;;;;;;;;;;;8.20;99.90;;;7.45;100.00;95545.41;10438075;28;2165;-79
2023/01/07 12:01:20;;;;;;;;;;;8.30;99.90;;;7.60;100.00;95547.34;10439358;28;2259;-78
2023/01/07 12:06:23;;;;;;;;;;;8.50;99.90;;;7.64;100.00;95534.25;10452195;28;2256;-78
2023/01/07 12:11:26;;;;;;;;;;;8.50;99.90;;;7.72;100.00;95529.22;10448034;28;2001;-77
2023/01/07 12:16:28;;;;;;;;;;;8.60;99.90;;;7.80;100.00;95517.19;10441760;28;1932;-78
2023/01/07 12:21:31;;;;;;;;;;;8.70;99.90;;;7.79;100.00;95507.56;10439361;28;2058;-78
2023/01/07 12:26:34;;;;;;;;;;;8.70;99.90;;;7.87;100.00;95509.72;10445973;28;1908;-79
2023/01/07 12:31:36;;;;;;;;;;;8.70;99.90;;;7.92;100.00;95496.34;10448541;28;1944;-79
2023/01/07 12:36:39;;;;;;;;;;;8.80;99.90;;;7.83;100.00;95493.41;10445422;28;1964;-78
2023/01/07 12:41:42;;;;;;;;;;;8.90;99.90;;;7.85;100.00;95496.59;10439681;28;1975;-77
2023/01/07 12:46:45;;;;;;;;;;;8.90;99.90;;;7.76;100.00;95494.69;10443399;28;1922;-77
2023/01/07 12:51:47;;;;;;;;;;;8.80;99.90;;;7.90;100.00;95490.47;10444855;28;1883;-77
2023/01/07 12:56:50;;;;;;;;;;;8.70;99.90;;;7.95;100.00;95490.50;10439865;28;1914;-79
2023/01/07 13:01:53;;;;;;;;;;;8.90;99.90;;;7.85;100.00;95485.09;10449070;28;1861;-78
2023/01/07 13:06:56;;;;;;;;;;;8.80;99.90;;;7.75;100.00;95487.72;10438676;28;1910;-77
2023/01/07 13:17:39;;;;;;;;;;;8.70;99.90;;;7.60;100.00;95483.13;10439500;28;1917;-79
2023/01/07 13:22:42;;;;;;;;;;;8.60;99.90;;;7.62;100.00;95486.34;10437503;28;1985;-78
2023/01/07 13:27:45;;;;;;;;;;;8.50;99.90;;;7.64;100.00;95478.09;10447795;28;1890;-77
2023/01/07 13:32:49;;;;;;;;;;;8.60;99.90;;;7.68;100.00;95479.94;10437878;28;1985;-79
2023/01/07 13:37:51;;;;;;;;;;;8.60;99.90;;;7.61;100.00;95473.25;10443987;28;1912;-79
2023/01/07 13:42:54;;;;;;;;;;;8.60;99.90;;;7.69;100.00;95478.88;10428849;28;1995;-78
2023/01/07 13:47:57;;;;;;;;;;;8.60;99.90;;;7.50;100.00;95478.53;10443836;28;1944;-77
2023/01/07 13:52:59;;;;;;;;;;;8.60;99.90;;;7.44;100.00;95468.88;10437684;28;2313;-78
2023/01/07 13:58:02;;;;;;;;;;;8.50;99.90;;;7.47;100.00;95472.91;10436021;28;1986;-79
2023/01/07 14:03:05;;;;;;;;;;;8.50;99.90;;;7.57;100.00;95467.59;10442320;28;1973;-78
2023/01/07 14:08:08;;;;;;;;;;;8.50;99.90;;;7.49;100.00;95468.09;10440676;28;1900;-78
2023/01/07 14:13:11;;;;;;;;;;;8.50;99.90;;;7.51;100.00;95469.47;10438823;28;1869;-77
2023/01/07 14:18:13;;;;;;;;;;;8.40;99.90;;;7.57;100.00;95468.44;10432645;28;1916;-77
2023/01/07 14:23:20;;;;;;;;;;;8.50;99.90;;;7.53;100.00;95470.00;10443235;28;1967;-78
2023/01/07 14:28:23;;;;;;;;;;;8.60;99.90;;;7.28;100.00;95465.34;10437947;28;1842;-79
2023/01/07 14:33:25;;;;;;;;;;;8.40;99.90;;;7.20;100.00;95467.72;10440157;28;1953;-77
2023/01/07 14:38:28;;;;;;;;;;;8.30;99.90;;;7.07;100.00;95468.19;10434173;28;1935;-78
2023/01/07 14:43:31;;;;;;;;;;;8.20;99.90;;;7.03;100.00;95476.69;10441601;28;1961;-77
2023/01/07 14:48:35;;;;;;;;;;;8.10;99.90;;;6.96;100.00;95473.47;10435330;28;1941;-78
2023/01/07 14:53:37;;;;;;;;;;;8.10;99.90;;;6.78;100.00;95474.66;10438762;28;1842;-79
2023/01/07 14:58:40;;;;;;;;;;;8.00;99.90;;;6.78;100.00;95473.88;10436672;28;2018;-77
2023/01/07 15:03:43;;;;;;;;;;;8.00;99.90;;;6.86;100.00;95468.03;10436098;28;1973;-77
2023/01/07 15:19:26;;;;;;;;;;;7.90;99.90;;;6.66;100.00;95470.56;10438520;28;1952;-77
2023/01/07 15:24:29;;;;;;;;;;;7.90;99.90;;;6.49;100.00;95468.84;10437542;28;1997;-77
2023/01/07 15:29:32;;;;;;;;;;;7.80;99.90;;;6.43;100.00;95474.41;10443901;28;1853;-78
2023/01/07 15:34:35;;;;;;;;;;;7.70;99.90;;;6.28;100.00;95471.59;10446006;28;1869;-78
2023/01/07 15:39:39;;;;;;;;;;;7.60;99.90;;;6.23;100.00;95475.00;10438740;28;1936;-77
2023/01/07 15:44:42;;;;;;;;;;;7.50;99.90;;;6.04;100.00;95469.22;10416518;28;1972;-77
2023/01/07 15:49:45;;;;;;;;;;;7.30;99.90;;;5.94;100.00;95472.63;10413729;28;2059;-78
2023/01/07 15:54:47;;;;;;;;;;;7.20;99.90;;;5.90;100.00;95482.13;10414745;28;2050;-79
2023/01/07 15:59:50;;;;;;;;;;;7.10;99.90;;;5.76;100.00;95480.13;10414128;28;1980;-76
2023/01/07 16:04:55;;;;;;;;;;;7.10;99.90;;;5.80;100.00;95492.72;10415283;28;2062;-76
2023/01/07 16:09:57;;;;;;;;;;;6.90;99.90;;;5.64;100.00;95477.59;10412200;28;2059;-78
2023/01/07 16:15:00;;;;;;;;;;;6.90;99.90;;;5.48;100.00;95475.81;10422384;28;2082;-79
2023/01/07 16:20:06;;;;;;;;;;;6.70;99.90;;;5.31;100.00;95482.00;10411754;28;2079;-77
2023/01/07 16:25:09;;;;;;;;;;;6.70;99.90;;;5.23;100.00;95482.44;10413387;28;2175;-78
2023/01/07 16:30:13;;;;;;;;;;;6.50;99.90;;;5.22;100.00;95493.34;10414821;28;2092;-77
2023/01/07 16:35:16;;;;;;;;;;;6.40;99.90;;;5.14;100.00;95484.69;10411870;28;2317;-77
2023/01/07 16:40:18;;;;;;;;;;;6.30;99.90;;;5.00;100.00;95485.31;10412871;28;2091;-78
2023/01/07 16:45:22;;;;;;;;;;;6.30;99.90;;;5.40;100.00;95467.19;10414374;28;1995;-77
2023/01/07 16:50:25;;;;;;;;;;;6.30;99.90;;;5.15;100.00;95472.19;10412251;28;2096;-76
2023/01/07 16:55:28;;;;;;;;;;;6.50;99.90;;;5.10;100.00;95469.47;10442525;28;2227;-77
2023/01/07 17:00:31;;;;;;;;;;;6.30;99.90;;;4.89;100.00;95466.50;10413726;28;1991;-77
2023/01/07 17:05:34;;;;;;;;;;;6.20;99.90;;;4.68;100.00;95475.25;10410696;28;2140;-78
2023/01/07 17:10:36;;;;;;;;;;;6.00;99.90;;;4.59;100.00;95484.72;10412441;28;1996;-78
2023/01/07 17:15:40;;;;;;;;;;;5.90;99.90;;;4.48;100.00;95491.72;10413491;28;2076;-78
2023/01/07 17:20:43;;;;;;;;;;;5.70;99.90;;;4.44;100.00;95490.59;10411830;28;2032;-79
2023/01/07 17:25:47;;;;;;;;;;;5.70;99.90;;;4.34;100.00;95485.13;10413654;28;2003;-77
2023/01/07 17:30:50;;;;;;;;;;;5.60;99.90;;;4.34;100.00;95491.25;10408887;28;2046;-77
2023/01/07 17:35:53;;;;;;;;;;;5.60;99.90;;;4.26;100.00;95498.81;10410779;28;2102;-77
2023/01/07 17:40:56;;;;;;;;;;;5.50;99.90;;;4.16;100.00;95480.81;10410254;28;2015;-77
2023/01/07 17:45:59;;;;;;;;;;;5.40;99.90;;;4.17;100.00;95478.97;10409805;28;2051;-77
2023/01/07 17:51:03;;;;;;;;;;;5.40;99.90;;;4.09;100.00;95482.84;10410196;28;2146;-78
2023/01/07 17:56:06;;;;;;;;;;;5.40;99.90;;;4.07;100.00;95495.56;10409148;28;2048;-78
2023/01/07 18:01:09;;;;;;;;;;;5.30;99.90;;;3.99;100.00;95503.91;10409857;28;2138;-78
2023/01/07 18:06:11;;;;;;;;;;;5.20;99.90;;;3.99;100.00;95498.59;10408591;28;2018;-76
2023/01/07 18:16:35;;;;;;;;;;;5.10;99.90;;;3.90;100.00;95505.38;10409919;28;2103;-78
2023/01/07 18:21:38;;;;;;;;;;;;;;;3.85;100.00;95502.59;10407603;28;2091;-78
2023/01/07 18:26:41;;;;;;;;;;;5.10;99.90;;;3.73;100.00;95492.00;10408149;28;2117;-78
2023/01/07 18:31:44;;;;;;;;;;;5.10;99.90;;;3.68;100.00;95500.69;10407304;28;2039;-77
2023/01/07 18:36:48;;;;;;;;;;;4.90;99.90;;;3.63;100.00;95508.59;10408852;28;1992;-78
2023/01/07 18:41:52;;;;;;;;;;;4.90;99.90;;;3.60;100.00;95510.91;10407222;28;2158;-78
2023/01/07 18:46:55;;;;;;;;;;;5.00;99.90;;;3.56;100.00;95510.56;10407703;28;2101;-77
2023/01/07 18:51:58;;;;;;;;;;;4.70;99.90;;;3.52;100.00;95506.78;10406769;28;2097;-79
2023/01/07 18:57:01;;;;;;;;;;;4.80;99.90;;;3.42;100.00;95503.91;10409866;28;2138;-78
2023/01/07 19:02:05;;;;;;;;;;;4.70;99.90;;;3.40;100.00;95506.00;10407572;28;1980;-77
2023/01/07 19:07:08;;;;;;;;;;;;;;;3.40;100.00;95496.16;10403348;28;1995;-77
2023/01/07 19:12:11;;;;;;;;;;;4.70;99.90;;;3.40;100.00;95487.38;10413052;28;2003;-77
2023/01/07 19:17:14;;;;;;;;;;;4.80;99.90;;;3.42;100.00;95488.75;10417239;28;2102;-77
2023/01/07 19:22:16;;;;;;;;;;;4.90;99.90;;;3.35;100.00;95497.91;10418932;28;2100;-77
2023/01/07 19:27:19;;;;;;;;;;;4.80;99.90;;;3.33;100.00;95494.69;10438100;28;1934;-77
2023/01/07 19:32:22;;;;;;;;;;;4.60;99.90;;;3.52;100.00;95496.94;10442866;28;1905;-78
2023/01/07 19:37:26;;;;;;;;;;;4.60;99.90;;;3.41;100.00;95505.75;10437121;28;1948;-76
2023/01/07 19:42:28;;;;;;;;;;;4.60;99.90;;;3.43;100.00;95494.88;10415382;28;2007;-77
2023/01/07 19:47:31;;;;;;;;;;;4.60;99.90;;;3.44;100.00;95483.22;10414478;28;1984;-76
2023/01/07 19:52:34;;;;;;;;;;;4.60;99.90;;;3.39;100.00;95483.13;10413906;28;2023;-78
2023/01/07 19:57:36;;;;;;;;;;;4.60;99.90;;;3.22;100.00;95475.88;10429329;28;2037;-77
2023/01/07 20:02:39;;;;;;;;;;;4.50;99.90;;;3.14;100.00;95478.91;10413055;28;2168;-78
2023/01/07 20:07:42;;;;;;;;;;;4.50;99.90;;;3.19;100.00;95470.25;10412958;28;2016;-74
2023/01/07 20:12:44;;;;;;;;;;;4.50;99.90;;;3.24;100.00;95454.38;10414109;28;2314;-76
2023/01/07 20:17:48;;;;;;;;;;;4.40;99.90;;;3.16;100.00;95452.91;10411724;28;2054;-77
2023/01/07 20:22:52;;;;;;;;;;;4.40;99.90;;;3.02;100.00;95454.22;10412075;28;2478;-75
2023/01/07 20:27:55;;;;;;;;;;;4.30;99.90;;;3.12;100.00;95449.13;10409932;28;1991;-75
2023/01/07 20:32:58;;;;;;;;;;;4.30;99.90;;;3.07;100.00;95449.00;10413517;28;2045;-76
2023/01/07 20:38:01;;;;;;;;;;;4.30;99.90;;;3.08;100.00;95439.19;10411618;28;1992;-75
2023/01/07 20:43:04;;;;;;;;;;;4.20;99.90;;;3.00;100.00;95443.03;10416451;28;2047;-73
2023/01/07 20:48:07;;;;;;;;;;;4.20;99.90;;;2.97;100.00;95440.81;10410432;28;2031;-76
2023/01/07 20:53:10;;;;;;;;;;;4.10;99.90;;;2.92;100.00;95435.41;10411219;28;1977;-76
2023/01/07 20:58:13;;;;;;;;;;;3.80;99.90;;;2.91;100.00;95433.78;10410249;28;2038;-75
2023/01/07 21:03:16;;;;;;;;;;;4.10;99.90;;;2.89;100.00;95425.25;10409965;28;2032;-76
2023/01/07 21:08:19;;;;;;;;;;;4.10;99.90;;;2.79;100.00;95419.72;10410429;28;2047;-76
2023/01/07 21:13:22;;;;;;;;;;;;;;;2.72;100.00;95415.34;10411491;28;2078;-76
2023/01/07 21:18:25;;;;;;;;;;;3.90;99.90;;;2.80;100.00;95410.72;10416908;28;2066;-75
2023/01/07 21:23:28;;;;;;;;;;;3.10;99.90;;;2.79;100.00;95407.25;10410376;28;2122;-77
2023/01/07 21:28:31;;;;;;;;;;;;;;;2.83;100.00;95399.66;10407835;28;2026;-76
2023/01/07 21:33:33;;;;;;;;;;;3.90;99.90;;;2.83;100.00;95391.69;10408390;28;1994;-74
2023/01/07 21:38:36;;;;;;;;;;;4.00;99.90;;;2.75;100.00;95382.25;10410073;28;2124;-74
2023/01/07 21:43:39;;;;;;;;;;;4.00;99.90;;;2.75;100.00;95384.09;10411477;28;2045;-74
2023/01/07 21:48:42;;;;;;;;;;;3.90;99.90;;;2.91;100.00;95370.06;10408098;28;2138;-75
2023/01/07 21:53:48;;;;;;;;;;;4.00;99.90;;;2.80;100.00;95377.03;10408426;28;1996;-77
2023/01/07 21:58:51;;;;;;;;;;;4.00;99.90;;;2.66;100.00;95376.47;10407301;28;2153;-77
2023/01/07 22:03:54;;;;;;;;;;;3.90;99.90;;;2.57;100.00;95383.19;10406443;28;2060;-75
2023/01/07 22:08:57;;;;;;;;;;;3.90;99.90;;;2.54;100.00;95380.97;10407036;28;2001;-75
2023/01/07 22:14:00;;;;;;;;;;;;;;;2.42;100.00;95388.19;10407832;28;2631;-75
2023/01/07 22:19:03;;;;;;;;;;;3.70;99.90;;;2.36;100.00;95383.78;10407801;28;2003;-76
2023/01/07 22:24:06;;;;;;;;;;;3.60;99.90;;;2.21;100.00;95380.78;10408270;28;2172;-76
2023/01/07 22:29:09;;;;;;;;;;;3.50;99.90;;;2.15;100.00;95385.97;10407889;28;2087;-76
2023/01/07 22:34:11;;;;;;;;;;;3.30;99.90;;;2.08;100.00;95398.53;10406189;28;2090;-76
2023/01/07 22:39:14;;;;;;;;;;;3.30;99.90;;;2.02;100.00;95388.84;10407747;28;1961;-75
2023/01/07 22:44:17;;;;;;;;;;;3.30;99.90;;;1.96;100.00;95394.25;10411143;28;2064;-75
2023/01/07 22:49:20;;;;;;;;;;;3.10;99.90;;;1.95;100.00;95388.13;10405608;28;2152;-76
2023/01/07 22:54:22;;;;;;;;;;;3.10;99.90;;;1.98;100.00;95382.41;10411317;28;1983;-76
2023/01/07 22:59:25;;;;;;;;;;;3.10;99.90;;;1.98;100.00;95377.09;10410117;28;1984;-77
2023/01/07 23:04:28;;;;;;;;;;;3.10;99.90;;;1.94;100.00;95369.81;10407306;28;1985;-75
2023/01/07 23:09:31;;;;;;;;;;;3.20;99.90;;;1.85;100.00;95366.72;10407819;28;2135;-75
2023/01/07 23:14:34;;;;;;;;;;;3.00;99.90;;;1.79;100.00;95368.44;10405251;28;2142;-76
2023/01/07 23:19:36;;;;;;;;;;;2.90;99.90;;;1.74;100.00;95354.25;10406766;28;2063;-76
2023/01/07 23:24:39;;;;;;;;;;;2.90;99.90;;;1.71;100.00;95342.25;10406167;28;2132;-77
2023/01/07 23:29:42;;;;;;;;;;;2.90;99.90;;;1.66;100.00;95334.19;10405974;28;2237;-77
2023/01/07 23:34:45;;;;;;;;;;;;;;;1.62;100.00;95338.31;10406088;28;2045;-75
2023/01/07 23:39:48;;;;;;;;;;;2.80;99.90;;;1.60;100.00;95335.91;10409741;28;1987;-76
2023/01/07 23:44:51;;;;;;;;;;;;;;;1.68;100.00;95326.81;10407763;28;2087;-76
2023/01/07 23:49:54;;;;;;;;;;;;;;;1.67;100.00;95327.84;10406160;28;2014;-74
2023/01/07 23:54:57;;;;;;;;;;;;;;;1.65;100.00;95327.25;10406172;28;2018;-76
